Perseverance — WDD5594 — position and weather

sailwx.info

Track history (hours):
 
Tides and Currents Weather Stations Pressure Air Temp Water Temp Dewpoint Dewpoint Depression Visibility Wind Speed Wind Dir Waves Ship Positions

Perseverance

Owner: Cooper, Mark E, Toledo, OR. More information available from US FCC via Universal Licensing System and Coast Guard Vessel Documentation Center.

Last reported at 2018-Apr-23 17:09 UTC. Time now 2018-Apr-26 11:14 UTC.
Position N 45°04' W 125°05'.

Type: Fishing. MMSI: 367618000.

Date/timePositionNaut miles runAvg speedWind from/ knotsBaromVisibWave heightAir tempDewpointWater temp
2018-Apr-23 17:09N 45°04' W 125°05'2 9.6
2018-Apr-23 16:54N 45°06' W 125°08'6 9.6
2018-Apr-23 16:17N 45°09' W 125°15'3 9.5
2018-Apr-23 15:57N 45°11' W 125°18'22 9.6
2018-Apr-23 13:37N 45°24' W 125°45'1 9.1
2018-Apr-23 13:27N 45°24' W 125°46'4 9.4
2018-Apr-23 13:00N 45°27' W 125°51'5 9.4
2018-Apr-23 12:30N 45°29' W 125°57'5 9.1
2018-Apr-23 11:59N 45°32' W 126°03'5 9.2
2018-Apr-23 11:28N 45°34' W 126°09'4 9.1
2018-Apr-23 11:00N 45°37' W 126°13'5 9.2
2018-Apr-23 10:30N 45°40' W 126°19'5 9.1
2018-Apr-23 10:00N 45°42' W 126°24'18 9.2
2018-Apr-23 08:02N 45°52' W 126°46'1 8.9
2018-Apr-23 07:55N 45°53' W 126°47'4 9.2
2018-Apr-23 07:30N 45°54' W 126°52'  
Track history (hours):
 
Tides and Currents Weather Stations Pressure Air Temp Water Temp Dewpoint Dewpoint Depression Visibility Wind Speed Wind Dir Waves Ship Positions

Perseverance

Owner: Cooper, Mark E, Toledo, OR. More information available from US FCC via Universal Licensing System and Coast Guard Vessel Documentation Center.

Last reported at 2018-Apr-23 17:09 UTC. Time now 2018-Apr-26 11:14 UTC.
Position N 45°04' W 125°05'.

Type: Fishing. MMSI: 367618000.

Date/timePositionNaut miles runAvg speedWind from/ knotsBaromVisibWave heightAir tempDewpointWater temp
2018-Apr-23 17:09N 45°04' W 125°05'2 9.6
2018-Apr-23 16:54N 45°06' W 125°08'6 9.6
2018-Apr-23 16:17N 45°09' W 125°15'3 9.5
2018-Apr-23 15:57N 45°11' W 125°18'22 9.6
2018-Apr-23 13:37N 45°24' W 125°45'1 9.1
2018-Apr-23 13:27N 45°24' W 125°46'4 9.4
2018-Apr-23 13:00N 45°27' W 125°51'5 9.4
2018-Apr-23 12:30N 45°29' W 125°57'5 9.1
2018-Apr-23 11:59N 45°32' W 126°03'5 9.2
2018-Apr-23 11:28N 45°34' W 126°09'4 9.1
2018-Apr-23 11:00N 45°37' W 126°13'5 9.2
2018-Apr-23 10:30N 45°40' W 126°19'5 9.1
2018-Apr-23 10:00N 45°42' W 126°24'18 9.2
2018-Apr-23 08:02N 45°52' W 126°46'1 8.9
2018-Apr-23 07:55N 45°53' W 126°47'4 9.2
2018-Apr-23 07:30N 45°54' W 126°52'  

Dump ship's entire track history